sensor_id;sensor_type;location;lat;lon;timestamp;pressure;altitude;pressure_sealevel;temperature;humidity
13027;BME280;6580;42.680;23.324;2023-03-05T00:00:46;94824.75;;;8.57;100.00
13027;BME280;6580;42.680;23.324;2023-03-05T00:03:13;94799.41;;;8.37;100.00
13027;BME280;6580;42.680;23.324;2023-03-05T00:05:41;94814.91;;;8.50;100.00
13027;BME280;6580;42.680;23.324;2023-03-05T00:08:10;94815.28;;;8.55;100.00
13027;BME280;6580;42.680;23.324;2023-03-05T00:10:37;94804.97;;;8.52;100.00
13027;BME280;6580;42.680;23.324;2023-03-05T00:13:08;94806.84;;;8.59;100.00
13027;BME280;6580;42.680;23.324;2023-03-05T00:15:39;94806.66;;;8.53;100.00
13027;BME280;6580;42.680;23.324;2023-03-05T00:18:06;94799.97;;;8.49;100.00
13027;BME280;6580;42.680;23.324;2023-03-05T00:20:36;94807.88;;;8.41;100.00
13027;BME280;6580;42.680;23.324;2023-03-05T00:23:03;94801.84;;;8.56;99.17
13027;BME280;6580;42.680;23.324;2023-03-05T00:25:33;94802.56;;;8.41;100.00
13027;BME280;6580;42.680;23.324;2023-03-05T00:28:06;94800.00;;;8.57;100.00
13027;BME280;6580;42.680;23.324;2023-03-05T00:30:35;94797.03;;;8.52;98.88
13027;BME280;6580;42.680;23.324;2023-03-05T00:33:02;94793.91;;;8.39;99.66
13027;BME280;6580;42.680;23.324;2023-03-05T00:35:30;94801.28;;;8.45;99.87
13027;BME280;6580;42.680;23.324;2023-03-05T00:37:56;94799.09;;;8.40;100.00
13027;BME280;6580;42.680;23.324;2023-03-05T00:40:23;94792.91;;;8.57;98.69
13027;BME280;6580;42.680;23.324;2023-03-05T00:42:50;94785.03;;;8.48;97.71
13027;BME280;6580;42.680;23.324;2023-03-05T00:45:18;94773.81;;;8.54;98.27
13027;BME280;6580;42.680;23.324;2023-03-05T00:47:45;94783.69;;;8.44;98.48
13027;BME280;6580;42.680;23.324;2023-03-05T00:50:11;94782.03;;;8.43;99.12
13027;BME280;6580;42.680;23.324;2023-03-05T00:52:38;94776.91;;;8.49;98.75
13027;BME280;6580;42.680;23.324;2023-03-05T00:55:07;94771.88;;;8.38;99.94
13027;BME280;6580;42.680;23.324;2023-03-05T00:57:35;94775.16;;;8.32;99.70
13027;BME280;6580;42.680;23.324;2023-03-05T01:00:05;94774.03;;;8.35;98.83
13027;BME280;6580;42.680;23.324;2023-03-05T01:02:34;94772.75;;;8.47;99.03
13027;BME280;6580;42.680;23.324;2023-03-05T01:05:00;94769.69;;;8.34;98.34
13027;BME280;6580;42.680;23.324;2023-03-05T01:07:28;94770.94;;;8.47;96.66
13027;BME280;6580;42.680;23.324;2023-03-05T01:09:56;94765.63;;;8.22;98.10
13027;BME280;6580;42.680;23.324;2023-03-05T01:12:24;94762.31;;;8.45;96.53
13027;BME280;6580;42.680;23.324;2023-03-05T01:14:53;94762.47;;;8.44;95.88
13027;BME280;6580;42.680;23.324;2023-03-05T01:17:20;94758.63;;;8.38;96.14
13027;BME280;6580;42.680;23.324;2023-03-05T01:19:54;94753.72;;;8.51;94.88
13027;BME280;6580;42.680;23.324;2023-03-05T01:22:21;94753.59;;;8.27;93.02
13027;BME280;6580;42.680;23.324;2023-03-05T01:24:49;94754.41;;;8.28;94.64
13027;BME280;6580;42.680;23.324;2023-03-05T01:27:19;94752.34;;;8.22;94.73
13027;BME280;6580;42.680;23.324;2023-03-05T01:29:47;94753.09;;;8.32;95.63
13027;BME280;6580;42.680;23.324;2023-03-05T01:32:14;94739.84;;;8.32;92.83
13027;BME280;6580;42.680;23.324;2023-03-05T01:34:45;94753.69;;;8.18;92.79
13027;BME280;6580;42.680;23.324;2023-03-05T01:37:13;94747.22;;;8.03;93.45
13027;BME280;6580;42.680;23.324;2023-03-05T01:39:40;94747.75;;;8.06;93.21
13027;BME280;6580;42.680;23.324;2023-03-05T01:42:06;94744.94;;;8.08;92.69
13027;BME280;6580;42.680;23.324;2023-03-05T01:44:33;94747.06;;;8.04;93.99
13027;BME280;6580;42.680;23.324;2023-03-05T01:47:01;94744.13;;;8.07;93.13
13027;BME280;6580;42.680;23.324;2023-03-05T01:49:31;94749.47;;;8.15;92.94
13027;BME280;6580;42.680;23.324;2023-03-05T01:52:05;94726.06;;;8.11;91.19
13027;BME280;6580;42.680;23.324;2023-03-05T01:54:36;94744.31;;;8.14;92.27
13027;BME280;6580;42.680;23.324;2023-03-05T01:57:07;94747.59;;;8.25;90.77
13027;BME280;6580;42.680;23.324;2023-03-05T01:59:39;94743.47;;;8.31;89.61
13027;BME280;6580;42.680;23.324;2023-03-05T02:02:08;94747.22;;;8.20;89.79
13027;BME280;6580;42.680;23.324;2023-03-05T02:04:40;94743.88;;;8.18;89.84
13027;BME280;6580;42.680;23.324;2023-03-05T02:07:08;94755.56;;;8.25;88.71
13027;BME280;6580;42.680;23.324;2023-03-05T02:09:38;94747.44;;;8.27;88.24
13027;BME280;6580;42.680;23.324;2023-03-05T02:12:05;94744.16;;;8.33;88.65
13027;BME280;6580;42.680;23.324;2023-03-05T02:14:36;94740.75;;;8.23;87.91
13027;BME280;6580;42.680;23.324;2023-03-05T02:17:04;94743.56;;;8.04;89.87
13027;BME280;6580;42.680;23.324;2023-03-05T02:19:46;94735.91;;;8.01;89.24
13027;BME280;6580;42.680;23.324;2023-03-05T02:22:15;94746.22;;;8.04;90.43
13027;BME280;6580;42.680;23.324;2023-03-05T02:24:43;94746.19;;;7.96;89.24
13027;BME280;6580;42.680;23.324;2023-03-05T02:27:12;94741.13;;;8.10;90.21
13027;BME280;6580;42.680;23.324;2023-03-05T02:29:42;94742.22;;;8.17;87.84
13027;BME280;6580;42.680;23.324;2023-03-05T02:32:09;94749.56;;;8.06;89.59
13027;BME280;6580;42.680;23.324;2023-03-05T02:34:38;94752.06;;;8.07;88.62
13027;BME280;6580;42.680;23.324;2023-03-05T02:37:06;94743.34;;;8.15;89.24
13027;BME280;6580;42.680;23.324;2023-03-05T02:39:35;94748.78;;;8.31;88.31
13027;BME280;6580;42.680;23.324;2023-03-05T02:42:04;94745.84;;;8.16;89.05
13027;BME280;6580;42.680;23.324;2023-03-05T02:44:31;94750.63;;;8.13;89.85
13027;BME280;6580;42.680;23.324;2023-03-05T02:46:58;94747.53;;;8.17;90.22
13027;BME280;6580;42.680;23.324;2023-03-05T02:49:25;94757.13;;;8.01;90.92
13027;BME280;6580;42.680;23.324;2023-03-05T02:51:52;94762.78;;;7.98;92.81
13027;BME280;6580;42.680;23.324;2023-03-05T02:54:19;94758.00;;;7.84;93.50
13027;BME280;6580;42.680;23.324;2023-03-05T02:56:49;94759.53;;;7.87;95.01
13027;BME280;6580;42.680;23.324;2023-03-05T02:59:16;94767.31;;;7.88;95.21
13027;BME280;6580;42.680;23.324;2023-03-05T03:01:43;94762.63;;;7.65;96.45
13027;BME280;6580;42.680;23.324;2023-03-05T03:04:10;94752.13;;;7.73;97.38
13027;BME280;6580;42.680;23.324;2023-03-05T03:06:38;94762.66;;;7.82;97.35
13027;BME280;6580;42.680;23.324;2023-03-05T03:09:05;94766.56;;;7.78;97.15
13027;BME280;6580;42.680;23.324;2023-03-05T03:11:32;94770.72;;;7.81;96.50
13027;BME280;6580;42.680;23.324;2023-03-05T03:14:01;94759.34;;;7.88;96.96
13027;BME280;6580;42.680;23.324;2023-03-05T03:16:27;94764.06;;;7.94;95.68
13027;BME280;6580;42.680;23.324;2023-03-05T03:18:54;94758.59;;;7.96;96.26
13027;BME280;6580;42.680;23.324;2023-03-05T03:21:22;94765.09;;;8.01;95.29
13027;BME280;6580;42.680;23.324;2023-03-05T03:23:49;94758.38;;;7.89;94.68
13027;BME280;6580;42.680;23.324;2023-03-05T03:26:17;94760.72;;;7.75;95.63
13027;BME280;6580;42.680;23.324;2023-03-05T03:28:44;94763.84;;;7.70;96.00
13027;BME280;6580;42.680;23.324;2023-03-05T03:31:12;94760.13;;;7.81;95.05
13027;BME280;6580;42.680;23.324;2023-03-05T03:33:39;94765.94;;;7.84;95.01
13027;BME280;6580;42.680;23.324;2023-03-05T03:36:07;94752.13;;;7.73;94.18
13027;BME280;6580;42.680;23.324;2023-03-05T03:38:33;94765.59;;;7.79;93.54
13027;BME280;6580;42.680;23.324;2023-03-05T03:41:00;94753.25;;;7.70;94.02
13027;BME280;6580;42.680;23.324;2023-03-05T03:43:28;94748.94;;;7.52;94.66
13027;BME280;6580;42.680;23.324;2023-03-05T03:45:54;94757.50;;;7.63;93.48
13027;BME280;6580;42.680;23.324;2023-03-05T03:48:22;94766.03;;;7.57;93.87
13027;BME280;6580;42.680;23.324;2023-03-05T03:50:52;94754.16;;;7.44;94.33
13027;BME280;6580;42.680;23.324;2023-03-05T03:53:20;94772.47;;;7.72;93.72
13027;BME280;6580;42.680;23.324;2023-03-05T03:55:47;94772.31;;;7.56;93.62
13027;BME280;6580;42.680;23.324;2023-03-05T03:58:13;94759.69;;;7.68;94.17
13027;BME280;6580;42.680;23.324;2023-03-05T04:00:40;94765.00;;;7.68;94.26
13027;BME280;6580;42.680;23.324;2023-03-05T04:03:09;94771.28;;;7.67;94.09
13027;BME280;6580;42.680;23.324;2023-03-05T04:05:37;94768.91;;;7.64;93.58
13027;BME280;6580;42.680;23.324;2023-03-05T04:08:05;94778.00;;;7.61;94.71
13027;BME280;6580;42.680;23.324;2023-03-05T04:10:36;94777.09;;;7.53;94.36
13027;BME280;6580;42.680;23.324;2023-03-05T04:13:05;94793.94;;;7.34;95.05
13027;BME280;6580;42.680;23.324;2023-03-05T04:15:32;94782.75;;;7.40;95.56
13027;BME280;6580;42.680;23.324;2023-03-05T04:17:58;94781.72;;;7.51;94.86
13027;BME280;6580;42.680;23.324;2023-03-05T04:20:27;94769.13;;;7.35;93.77
13027;BME280;6580;42.680;23.324;2023-03-05T04:22:56;94783.00;;;7.47;92.62
13027;BME280;6580;42.680;23.324;2023-03-05T04:25:23;94779.25;;;7.40;93.00
13027;BME280;6580;42.680;23.324;2023-03-05T04:27:50;94768.44;;;7.16;95.06
13027;BME280;6580;42.680;23.324;2023-03-05T04:30:17;94745.53;;;7.24;94.94
13027;BME280;6580;42.680;23.324;2023-03-05T04:32:45;94778.69;;;7.46;94.24
13027;BME280;6580;42.680;23.324;2023-03-05T04:35:11;94776.31;;;7.43;93.25
13027;BME280;6580;42.680;23.324;2023-03-05T04:37:39;94779.03;;;7.33;93.56
13027;BME280;6580;42.680;23.324;2023-03-05T04:40:09;94775.72;;;7.49;92.62
13027;BME280;6580;42.680;23.324;2023-03-05T04:42:37;94773.59;;;7.52;92.58
13027;BME280;6580;42.680;23.324;2023-03-05T04:45:08;94771.94;;;7.51;93.07
13027;BME280;6580;42.680;23.324;2023-03-05T04:47:35;94762.63;;;7.47;92.35
13027;BME280;6580;42.680;23.324;2023-03-05T04:50:02;94748.53;;;7.29;93.93
13027;BME280;6580;42.680;23.324;2023-03-05T04:52:29;94765.50;;;7.36;93.16
13027;BME280;6580;42.680;23.324;2023-03-05T04:54:56;94733.03;;;7.17;93.74
13027;BME280;6580;42.680;23.324;2023-03-05T04:57:24;94765.59;;;7.44;93.11
13027;BME280;6580;42.680;23.324;2023-03-05T04:59:51;94761.28;;;7.43;92.55
13027;BME280;6580;42.680;23.324;2023-03-05T05:02:18;94762.94;;;7.44;92.54
13027;BME280;6580;42.680;23.324;2023-03-05T05:04:45;94760.72;;;7.40;93.13
13027;BME280;6580;42.680;23.324;2023-03-05T05:07:12;94755.66;;;7.46;91.74
13027;BME280;6580;42.680;23.324;2023-03-05T05:09:42;94767.16;;;7.37;91.73
13027;BME280;6580;42.680;23.324;2023-03-05T05:12:09;94767.41;;;7.44;91.21
13027;BME280;6580;42.680;23.324;2023-03-05T05:14:38;94767.81;;;7.22;92.71
13027;BME280;6580;42.680;23.324;2023-03-05T05:17:05;94773.06;;;7.31;93.05
13027;BME280;6580;42.680;23.324;2023-03-05T05:19:32;94770.69;;;7.28;92.17
13027;BME280;6580;42.680;23.324;2023-03-05T05:22:01;94774.44;;;7.35;90.39
13027;BME280;6580;42.680;23.324;2023-03-05T05:24:29;94777.00;;;7.27;90.55
13027;BME280;6580;42.680;23.324;2023-03-05T05:26:56;94778.63;;;7.28;90.96
13027;BME280;6580;42.680;23.324;2023-03-05T05:29:27;94768.31;;;7.35;88.79
13027;BME280;6580;42.680;23.324;2023-03-05T05:31:56;94768.09;;;7.63;87.24
13027;BME280;6580;42.680;23.324;2023-03-05T05:34:24;94773.53;;;7.62;86.29
13027;BME280;6580;42.680;23.324;2023-03-05T05:36:52;94753.38;;;7.51;85.59
13027;BME280;6580;42.680;23.324;2023-03-05T05:39:19;94773.31;;;7.73;84.89
13027;BME280;6580;42.680;23.324;2023-03-05T05:41:49;94764.75;;;7.61;84.26
13027;BME280;6580;42.680;23.324;2023-03-05T05:44:16;94776.56;;;7.49;85.00
13027;BME280;6580;42.680;23.324;2023-03-05T05:46:44;94780.44;;;7.90;83.63
13027;BME280;6580;42.680;23.324;2023-03-05T05:49:12;94783.81;;;8.00;82.19
13027;BME280;6580;42.680;23.324;2023-03-05T05:51:42;94783.50;;;8.20;80.47
13027;BME280;6580;42.680;23.324;2023-03-05T05:54:11;94777.28;;;8.29;78.88
13027;BME280;6580;42.680;23.324;2023-03-05T05:56:38;94780.31;;;8.34;77.25
13027;BME280;6580;42.680;23.324;2023-03-05T05:59:06;94789.38;;;8.49;75.22
13027;BME280;6580;42.680;23.324;2023-03-05T06:01:34;94789.97;;;8.43;76.64
13027;BME280;6580;42.680;23.324;2023-03-05T06:04:02;94791.81;;;8.68;74.87
13027;BME280;6580;42.680;23.324;2023-03-05T06:06:31;94776.31;;;8.30;73.55
13027;BME280;6580;42.680;23.324;2023-03-05T06:09:00;94786.94;;;8.38;74.96
13027;BME280;6580;42.680;23.324;2023-03-05T06:11:27;94794.09;;;8.63;73.47
13027;BME280;6580;42.680;23.324;2023-03-05T06:13:54;94801.78;;;9.07;70.84
13027;BME280;6580;42.680;23.324;2023-03-05T06:16:22;94792.63;;;9.43;67.25
13027;BME280;6580;42.680;23.324;2023-03-05T06:18:52;94799.38;;;9.71;65.21
13027;BME280;6580;42.680;23.324;2023-03-05T06:21:22;94794.78;;;10.05;63.77
13027;BME280;6580;42.680;23.324;2023-03-05T06:23:52;94790.63;;;10.02;63.82
13027;BME280;6580;42.680;23.324;2023-03-05T06:26:21;94789.25;;;9.90;62.64
13027;BME280;6580;42.680;23.324;2023-03-05T06:28:51;94797.44;;;9.39;64.83
13027;BME280;6580;42.680;23.324;2023-03-05T06:31:21;94806.78;;;9.10;66.68
13027;BME280;6580;42.680;23.324;2023-03-05T06:33:51;94801.22;;;9.29;65.31
13027;BME280;6580;42.680;23.324;2023-03-05T06:36:19;94812.41;;;8.99;63.74
13027;BME280;6580;42.680;23.324;2023-03-05T06:38:47;94809.88;;;8.64;64.71
13027;BME280;6580;42.680;23.324;2023-03-05T06:41:17;94807.66;;;8.60;66.21
13027;BME280;6580;42.680;23.324;2023-03-05T06:43:46;94800.03;;;8.82;66.36
13027;BME280;6580;42.680;23.324;2023-03-05T06:46:15;94812.28;;;9.16;65.46
13027;BME280;6580;42.680;23.324;2023-03-05T06:48:46;94807.38;;;9.29;63.29
13027;BME280;6580;42.680;23.324;2023-03-05T06:51:14;94808.41;;;9.36;61.71
13027;BME280;6580;42.680;23.324;2023-03-05T06:53:42;94817.00;;;9.30;62.26
13027;BME280;6580;42.680;23.324;2023-03-05T06:56:10;94814.97;;;9.66;61.16
13027;BME280;6580;42.680;23.324;2023-03-05T06:58:40;94813.44;;;10.20;58.69
13027;BME280;6580;42.680;23.324;2023-03-05T07:01:07;94814.34;;;10.99;55.23
13027;BME280;6580;42.680;23.324;2023-03-05T07:03:36;94792.25;;;11.67;52.21
13027;BME280;6580;42.680;23.324;2023-03-05T07:06:04;94813.91;;;11.72;51.56
13027;BME280;6580;42.680;23.324;2023-03-05T07:08:35;94804.44;;;12.00;50.28
13027;BME280;6580;42.680;23.324;2023-03-05T07:11:02;94801.22;;;12.27;50.03
13027;BME280;6580;42.680;23.324;2023-03-05T07:13:29;94792.97;;;13.39;47.59
13027;BME280;6580;42.680;23.324;2023-03-05T07:15:57;94792.22;;;13.74;46.21
13027;BME280;6580;42.680;23.324;2023-03-05T07:18:25;94803.16;;;14.70;44.39
13027;BME280;6580;42.680;23.324;2023-03-05T07:20:52;94807.22;;;14.66;42.17
13027;BME280;6580;42.680;23.324;2023-03-05T07:23:20;94794.81;;;14.86;42.02
13027;BME280;6580;42.680;23.324;2023-03-05T07:25:47;94804.31;;;15.10;42.55
13027;BME280;6580;42.680;23.324;2023-03-05T07:28:14;94787.75;;;15.67;40.72
13027;BME280;6580;42.680;23.324;2023-03-05T07:30:41;94782.38;;;15.27;41.54
13027;BME280;6580;42.680;23.324;2023-03-05T07:33:17;94790.94;;;15.43;40.44
13027;BME280;6580;42.680;23.324;2023-03-05T07:35:44;94784.16;;;15.94;40.29
13027;BME280;6580;42.680;23.324;2023-03-05T07:38:11;94788.59;;;14.17;42.89
13027;BME280;6580;42.680;23.324;2023-03-05T07:40:38;94783.63;;;14.55;43.02
13027;BME280;6580;42.680;23.324;2023-03-05T07:43:05;94791.34;;;15.13;42.19
13027;BME280;6580;42.680;23.324;2023-03-05T07:45:32;94791.94;;;14.39;42.41
13027;BME280;6580;42.680;23.324;2023-03-05T07:47:59;94791.91;;;12.23;47.03
13027;BME280;6580;42.680;23.324;2023-03-05T07:50:32;94796.75;;;11.28;49.84
13027;BME280;6580;42.680;23.324;2023-03-05T07:52:59;94792.31;;;11.90;49.81
13027;BME280;6580;42.680;23.324;2023-03-05T07:55:27;94791.69;;;12.69;48.37
13027;BME280;6580;42.680;23.324;2023-03-05T07:57:54;94786.25;;;13.14;47.00
13027;BME280;6580;42.680;23.324;2023-03-05T08:00:21;94796.56;;;13.31;46.64
13027;BME280;6580;42.680;23.324;2023-03-05T08:02:48;94798.22;;;13.32;47.33
13027;BME280;6580;42.680;23.324;2023-03-05T08:05:15;94795.28;;;13.56;46.51
13027;BME280;6580;42.680;23.324;2023-03-05T08:07:43;94790.22;;;13.04;47.83
13027;BME280;6580;42.680;23.324;2023-03-05T08:10:11;94785.38;;;13.71;46.57
13027;BME280;6580;42.680;23.324;2023-03-05T08:12:38;94797.50;;;13.38;46.38
13027;BME280;6580;42.680;23.324;2023-03-05T08:15:05;94792.44;;;13.29;47.67
13027;BME280;6580;42.680;23.324;2023-03-05T08:17:32;94784.41;;;13.43;46.96
13027;BME280;6580;42.680;23.324;2023-03-05T08:20:02;94774.47;;;12.35;49.44
13027;BME280;6580;42.680;23.324;2023-03-05T08:22:31;94795.75;;;12.80;48.23
13027;BME280;6580;42.680;23.324;2023-03-05T08:25:00;94796.78;;;12.19;49.85
13027;BME280;6580;42.680;23.324;2023-03-05T08:27:27;94798.63;;;12.56;49.04
13027;BME280;6580;42.680;23.324;2023-03-05T08:29:54;94795.75;;;12.80;49.80
13027;BME280;6580;42.680;23.324;2023-03-05T08:32:21;94787.09;;;12.18;50.23
13027;BME280;6580;42.680;23.324;2023-03-05T08:34:51;94786.28;;;12.18;50.87
13027;BME280;6580;42.680;23.324;2023-03-05T08:37:21;94789.06;;;12.47;50.49
13027;BME280;6580;42.680;23.324;2023-03-05T08:39:48;94790.63;;;12.56;49.57
13027;BME280;6580;42.680;23.324;2023-03-05T08:42:16;94777.56;;;12.98;49.62
13027;BME280;6580;42.680;23.324;2023-03-05T08:44:43;94774.84;;;12.10;51.51
13027;BME280;6580;42.680;23.324;2023-03-05T08:47:10;94773.06;;;12.61;50.80
13027;BME280;6580;42.680;23.324;2023-03-05T08:49:37;94772.31;;;12.53;49.10
13027;BME280;6580;42.680;23.324;2023-03-05T08:52:04;94778.41;;;12.76;49.03
13027;BME280;6580;42.680;23.324;2023-03-05T08:54:32;94767.63;;;12.55;48.92
13027;BME280;6580;42.680;23.324;2023-03-05T08:56:59;94782.91;;;12.46;47.83
13027;BME280;6580;42.680;23.324;2023-03-05T08:59:27;94770.13;;;12.71;48.19
13027;BME280;6580;42.680;23.324;2023-03-05T09:01:54;94764.09;;;13.34;46.60
13027;BME280;6580;42.680;23.324;2023-03-05T09:04:21;94756.06;;;13.84;45.78
13027;BME280;6580;42.680;23.324;2023-03-05T09:06:49;94748.63;;;14.15;43.92
13027;BME280;6580;42.680;23.324;2023-03-05T09:09:19;94744.06;;;13.59;44.34
13027;BME280;6580;42.680;23.324;2023-03-05T09:11:47;94747.19;;;13.48;44.78
13027;BME280;6580;42.680;23.324;2023-03-05T09:14:16;94746.28;;;13.91;44.78
13027;BME280;6580;42.680;23.324;2023-03-05T09:16:45;94751.31;;;14.01;43.78
13027;BME280;6580;42.680;23.324;2023-03-05T09:19:11;94744.16;;;14.22;42.33
13027;BME280;6580;42.680;23.324;2023-03-05T09:21:40;94744.16;;;13.51;42.83
13027;BME280;6580;42.680;23.324;2023-03-05T09:24:08;94718.16;;;13.81;43.00
13027;BME280;6580;42.680;23.324;2023-03-05T09:26:41;94727.03;;;14.02;41.67
13027;BME280;6580;42.680;23.324;2023-03-05T09:29:10;94720.94;;;13.37;41.82
13027;BME280;6580;42.680;23.324;2023-03-05T09:31:36;94729.31;;;13.49;42.21
13027;BME280;6580;42.680;23.324;2023-03-05T09:34:06;94730.91;;;13.43;42.55
13027;BME280;6580;42.680;23.324;2023-03-05T09:36:33;94722.06;;;13.78;42.22
13027;BME280;6580;42.680;23.324;2023-03-05T09:39:00;94728.72;;;14.24;41.22
13027;BME280;6580;42.680;23.324;2023-03-05T09:41:48;94723.75;;;14.00;41.02
13027;BME280;6580;42.680;23.324;2023-03-05T09:44:27;94727.44;;;13.99;40.37
13027;BME280;6580;42.680;23.324;2023-03-05T09:47:08;94719.47;;;13.35;41.49
13027;BME280;6580;42.680;23.324;2023-03-05T09:49:50;94690.81;;;13.15;41.20
13027;BME280;6580;42.680;23.324;2023-03-05T09:52:22;94709.13;;;13.46;41.25
13027;BME280;6580;42.680;23.324;2023-03-05T09:54:54;94703.00;;;13.52;41.07
13027;BME280;6580;42.680;23.324;2023-03-05T09:57:28;94711.75;;;13.96;39.95
13027;BME280;6580;42.680;23.324;2023-03-05T10:00:00;94697.19;;;15.02;37.27
13027;BME280;6580;42.680;23.324;2023-03-05T10:02:34;94699.03;;;15.01;37.12
13027;BME280;6580;42.680;23.324;2023-03-05T10:05:12;94669.06;;;15.72;35.58
13027;BME280;6580;42.680;23.324;2023-03-05T10:07:43;94681.81;;;16.36;35.03
13027;BME280;6580;42.680;23.324;2023-03-05T10:10:19;94696.28;;;14.95;36.06
13027;BME280;6580;42.680;23.324;2023-03-05T10:12:51;94692.34;;;15.58;36.82
13027;BME280;6580;42.680;23.324;2023-03-05T10:15:23;94673.88;;;16.93;34.27
13027;BME280;6580;42.680;23.324;2023-03-05T10:18:04;94680.13;;;15.56;36.31
13027;BME280;6580;42.680;23.324;2023-03-05T10:20:48;94675.19;;;16.32;35.03
13027;BME280;6580;42.680;23.324;2023-03-05T10:23:24;94667.25;;;16.30;35.26
13027;BME280;6580;42.680;23.324;2023-03-05T10:26:09;94656.75;;;16.68;35.25
13027;BME280;6580;42.680;23.324;2023-03-05T10:28:43;94655.03;;;15.83;36.54
13027;BME280;6580;42.680;23.324;2023-03-05T10:34:19;94644.53;;;17.54;33.59
13027;BME280;6580;42.680;23.324;2023-03-05T10:37:10;94635.53;;;17.36;32.99
13027;BME280;6580;42.680;23.324;2023-03-05T10:39:55;94630.75;;;17.32;33.03
13027;BME280;6580;42.680;23.324;2023-03-05T10:42:33;94629.53;;;17.71;32.38
13027;BME280;6580;42.680;23.324;2023-03-05T10:45:11;94625.16;;;17.39;31.66
13027;BME280;6580;42.680;23.324;2023-03-05T10:47:44;94630.09;;;17.42;31.54
13027;BME280;6580;42.680;23.324;2023-03-05T10:50:18;94623.50;;;16.56;33.04
13027;BME280;6580;42.680;23.324;2023-03-05T10:52:51;94628.84;;;16.24;33.02
13027;BME280;6580;42.680;23.324;2023-03-05T10:55:23;94620.34;;;15.88;33.55
13027;BME280;6580;42.680;23.324;2023-03-05T10:57:50;94612.28;;;15.22;34.27
13027;BME280;6580;42.680;23.324;2023-03-05T11:00:19;94615.97;;;15.74;34.25
13027;BME280;6580;42.680;23.324;2023-03-05T11:02:57;94616.22;;;15.98;33.48
13027;BME280;6580;42.680;23.324;2023-03-05T11:05:45;94607.75;;;16.27;33.23
13027;BME280;6580;42.680;23.324;2023-03-05T11:08:29;94610.63;;;16.77;32.98
13027;BME280;6580;42.680;23.324;2023-03-05T11:11:11;94596.94;;;16.79;32.71
13027;BME280;6580;42.680;23.324;2023-03-05T11:13:49;94593.69;;;16.25;33.49
13027;BME280;6580;42.680;23.324;2023-03-05T11:16:19;94584.81;;;16.18;33.79
13027;BME280;6580;42.680;23.324;2023-03-05T11:18:47;94595.72;;;15.78;34.33
13027;BME280;6580;42.680;23.324;2023-03-05T11:21:21;94597.78;;;14.69;35.01
13027;BME280;6580;42.680;23.324;2023-03-05T11:24:13;94587.44;;;14.66;35.38
13027;BME280;6580;42.680;23.324;2023-03-05T11:26:48;94598.13;;;14.05;37.27
13027;BME280;6580;42.680;23.324;2023-03-05T11:29:21;94589.28;;;14.59;35.54
13027;BME280;6580;42.680;23.324;2023-03-05T11:31:48;94587.09;;;15.23;34.74
13027;BME280;6580;42.680;23.324;2023-03-05T11:34:27;94566.34;;;14.50;35.14
13027;BME280;6580;42.680;23.324;2023-03-05T11:37:02;94582.56;;;14.36;36.03
13027;BME280;6580;42.680;23.324;2023-03-05T11:39:33;94580.69;;;14.36;36.22
13027;BME280;6580;42.680;23.324;2023-03-05T11:42:09;94569.38;;;14.41;36.74
13027;BME280;6580;42.680;23.324;2023-03-05T11:44:45;94554.88;;;15.10;35.54
13027;BME280;6580;42.680;23.324;2023-03-05T11:47:25;94560.69;;;13.84;37.22
13027;BME280;6580;42.680;23.324;2023-03-05T11:50:02;94554.47;;;14.05;36.51
13027;BME280;6580;42.680;23.324;2023-03-05T11:52:33;94555.50;;;14.31;36.59
13027;BME280;6580;42.680;23.324;2023-03-05T11:55:14;94536.81;;;14.84;36.15
13027;BME280;6580;42.680;23.324;2023-03-05T11:57:48;94533.28;;;15.30;35.93
13027;BME280;6580;42.680;23.324;2023-03-05T12:00:20;94530.13;;;16.89;33.62
13027;BME280;6580;42.680;23.324;2023-03-05T12:02:52;94528.91;;;17.66;32.52
13027;BME280;6580;42.680;23.324;2023-03-05T12:05:22;94515.28;;;18.58;31.16
13027;BME280;6580;42.680;23.324;2023-03-05T12:07:52;94516.97;;;17.80;31.46
13027;BME280;6580;42.680;23.324;2023-03-05T12:10:25;94515.69;;;17.89;31.93
13027;BME280;6580;42.680;23.324;2023-03-05T12:12:57;94511.38;;;17.81;31.48
13027;BME280;6580;42.680;23.324;2023-03-05T12:15:38;94504.06;;;17.88;31.63
13027;BME280;6580;42.680;23.324;2023-03-05T12:18:19;94504.13;;;18.31;30.70
13027;BME280;6580;42.680;23.324;2023-03-05T12:21:03;94500.69;;;18.24;30.03
13027;BME280;6580;42.680;23.324;2023-03-05T12:23:49;94481.78;;;18.84;30.62
13027;BME280;6580;42.680;23.324;2023-03-05T12:26:18;94492.19;;;18.80;30.71
13027;BME280;6580;42.680;23.324;2023-03-05T12:29:11;94504.91;;;17.21;33.01
13027;BME280;6580;42.680;23.324;2023-03-05T12:31:51;94495.91;;;16.26;34.62
13027;BME280;6580;42.680;23.324;2023-03-05T12:34:55;94499.81;;;16.49;34.29
13027;BME280;6580;42.680;23.324;2023-03-05T12:37:58;94495.97;;;15.81;34.65
13027;BME280;6580;42.680;23.324;2023-03-05T12:40:27;94485.03;;;15.56;35.01
13027;BME280;6580;42.680;23.324;2023-03-05T12:42:58;94478.50;;;17.73;32.18
13027;BME280;6580;42.680;23.324;2023-03-05T12:45:33;94476.34;;;16.76;33.10
13027;BME280;6580;42.680;23.324;2023-03-05T12:51:35;94479.44;;;15.90;34.63
13027;BME280;6580;42.680;23.324;2023-03-05T12:54:26;94487.50;;;15.38;34.98
13027;BME280;6580;42.680;23.324;2023-03-05T12:56:54;94466.59;;;16.18;34.46
13027;BME280;6580;42.680;23.324;2023-03-05T12:59:28;94456.44;;;16.20;34.35
13027;BME280;6580;42.680;23.324;2023-03-05T13:02:01;94470.56;;;15.70;34.46
13027;BME280;6580;42.680;23.324;2023-03-05T13:04:30;94469.31;;;15.27;35.08
13027;BME280;6580;42.680;23.324;2023-03-05T13:07:00;94463.88;;;15.08;35.18
13027;BME280;6580;42.680;23.324;2023-03-05T13:09:30;94473.09;;;14.93;35.57
13027;BME280;6580;42.680;23.324;2023-03-05T13:11:58;94475.22;;;14.44;37.11
13027;BME280;6580;42.680;23.324;2023-03-05T13:14:31;94479.25;;;14.00;37.45
13027;BME280;6580;42.680;23.324;2023-03-05T13:17:00;94473.44;;;13.62;38.18
13027;BME280;6580;42.680;23.324;2023-03-05T13:19:29;94475.09;;;13.63;37.68
13027;BME280;6580;42.680;23.324;2023-03-05T13:22:01;94469.78;;;13.42;38.48
13027;BME280;6580;42.680;23.324;2023-03-05T13:24:29;94469.97;;;13.41;38.59
13027;BME280;6580;42.680;23.324;2023-03-05T13:26:56;94471.56;;;13.35;38.55